Huvudsida
METAR-TAF:

METAR-TAF

Flygplatser :

Valladolid Airport

Valladolid, Spanien

latitud: 41-43N, longitud: 004-51W, höjd: 849 m

Aktuellt väderrapport

Denna rapport gjordes för 52 minuter sedan, klockan 19:30 UTC
Vind 7 kt från nord
Temperatur 19°C
Fuktighet 34%
Tryck 1023 hPa
Sikt 10 km eller mer
Inga moln under 1 500 m eller inga cumulonimbus

METAR: LEVD 211930Z 35007KT CAVOK 19/03 Q1023

Tid: 22:22 (20:22 UTC)

Väderprognos

Denna rapport gjordes för 3 timmar och 22 minuter sedan, klockan 17:00 UTC
Prognos gäller från 21 kl. 18 UTC till 22 kl. 18 UTC
Vind 4 kt varierande vindriktning
Sikt 10 km eller mer
Inga moln under 1 500 m eller inga cumulonimbus
Sannolikhet 30% :
Temporärt
från 22 kl. 03 UTC till 22 kl. 07 UTC
Sikt: 3000 m
fuktdis

TAF: LEVD 211700Z 2118/2218 VRB04KT CAVOK TX29/2215Z TN12/2206Z PROB30 TEMPO 2203/2207 3000 BR

Aktuella väderrapporter och prognoser från 4000 flygplatser (METAR- och TAF-rapporter).

De tillgängliga stationerna syns som gula och röda prickar på kartan.

För musen över prickarna för att se namnen på stationerna.

Klicka sedan för att få väderrapporter och prognoser.

För att ändra kartan: Klicka på de gröna knapparna med ett svart kors på för att zooma in; den gröna knappen med ett streck på för att zooma ut; eller på de gröna pilarna för angränsande kartor.


METAR-TAF: